Woody Point, Canada
Current Conditions -  °F | °C
As of 12:00 AM on Monday 22 Dec 2014 (Local Time) from CYDF Reporting Station
Overcast Overcast  
Wind Chill: 18°   Ceiling: 1800
Heat Index: 25°   Visibility: 15mi
Dew Point: 21°   Wind: 6mph
Humidity: 86%   Direction: 260°W
Pressure: 30.37"   Gusts: NA
Location:  49.5°N, 57.93°W
Report Text: CYDF 220300Z 26005KT 15SM OVC018 M04/M06 A3037 RMK SC8 SLP287
Loading
Personal Weather Stations






























Interactive Weather Map New forecast layout! Learn more

10-Day Weather Forecast

Advertisements
Track Severe Weather on mobile